sensor_id;sensor_type;location;lat;lon;timestamp;P1;durP1;ratioP1;P2;durP2;ratioP2
7195;SDS011;3639;51.308;5.624;2023-12-04T00:00:10;28.40;;;14.03;;
7195;SDS011;3639;51.308;5.624;2023-12-04T00:02:35;31.40;;;14.97;;
7195;SDS011;3639;51.308;5.624;2023-12-04T00:05:03;32.63;;;14.07;;
7195;SDS011;3639;51.308;5.624;2023-12-04T00:07:29;29.70;;;14.50;;
7195;SDS011;3639;51.308;5.624;2023-12-04T00:09:55;30.53;;;14.57;;
7195;SDS011;3639;51.308;5.624;2023-12-04T00:12:20;29.57;;;13.70;;
7195;SDS011;3639;51.308;5.624;2023-12-04T00:14:46;34.70;;;14.70;;
7195;SDS011;3639;51.308;5.624;2023-12-04T00:17:11;28.57;;;13.23;;
7195;SDS011;3639;51.308;5.624;2023-12-04T00:19:37;34.87;;;14.80;;
7195;SDS011;3639;51.308;5.624;2023-12-04T00:22:03;31.83;;;14.73;;
7195;SDS011;3639;51.308;5.624;2023-12-04T00:24:28;29.30;;;13.90;;
7195;SDS011;3639;51.308;5.624;2023-12-04T00:26:55;31.77;;;15.00;;
7195;SDS011;3639;51.308;5.624;2023-12-04T00:29:20;27.67;;;12.93;;
7195;SDS011;3639;51.308;5.624;2023-12-04T00:31:46;28.73;;;13.70;;
7195;SDS011;3639;51.308;5.624;2023-12-04T00:34:12;27.07;;;13.93;;
7195;SDS011;3639;51.308;5.624;2023-12-04T00:36:37;31.07;;;14.10;;
7195;SDS011;3639;51.308;5.624;2023-12-04T00:39:03;27.77;;;13.87;;
7195;SDS011;3639;51.308;5.624;2023-12-04T00:41:29;29.83;;;12.60;;
7195;SDS011;3639;51.308;5.624;2023-12-04T00:43:55;28.23;;;13.23;;
7195;SDS011;3639;51.308;5.624;2023-12-04T00:46:20;27.60;;;13.80;;
7195;SDS011;3639;51.308;5.624;2023-12-04T00:48:46;26.63;;;13.37;;
7195;SDS011;3639;51.308;5.624;2023-12-04T00:51:12;27.43;;;11.90;;
7195;SDS011;3639;51.308;5.624;2023-12-04T00:53:37;24.40;;;11.83;;
7195;SDS011;3639;51.308;5.624;2023-12-04T00:56:04;27.00;;;13.23;;
7195;SDS011;3639;51.308;5.624;2023-12-04T00:58:31;24.37;;;12.17;;
7195;SDS011;3639;51.308;5.624;2023-12-04T01:00:56;25.67;;;12.93;;
7195;SDS011;3639;51.308;5.624;2023-12-04T01:03:22;31.33;;;12.80;;
7195;SDS011;3639;51.308;5.624;2023-12-04T01:05:48;24.40;;;12.40;;
7195;SDS011;3639;51.308;5.624;2023-12-04T01:08:13;23.60;;;12.33;;
7195;SDS011;3639;51.308;5.624;2023-12-04T01:10:39;25.07;;;12.47;;
7195;SDS011;3639;51.308;5.624;2023-12-04T01:13:05;25.23;;;13.17;;
7195;SDS011;3639;51.308;5.624;2023-12-04T01:15:30;29.87;;;13.07;;
7195;SDS011;3639;51.308;5.624;2023-12-04T01:17:56;24.30;;;13.03;;
7195;SDS011;3639;51.308;5.624;2023-12-04T01:20:21;26.80;;;12.23;;
7195;SDS011;3639;51.308;5.624;2023-12-04T01:22:48;27.87;;;12.80;;
7195;SDS011;3639;51.308;5.624;2023-12-04T01:25:13;27.63;;;12.30;;
7195;SDS011;3639;51.308;5.624;2023-12-04T01:27:39;23.83;;;11.97;;
7195;SDS011;3639;51.308;5.624;2023-12-04T01:30:05;30.47;;;13.00;;
7195;SDS011;3639;51.308;5.624;2023-12-04T01:32:33;25.13;;;12.07;;
7195;SDS011;3639;51.308;5.624;2023-12-04T01:34:59;23.80;;;12.63;;
7195;SDS011;3639;51.308;5.624;2023-12-04T01:37:26;25.30;;;12.17;;
7195;SDS011;3639;51.308;5.624;2023-12-04T01:39:52;25.87;;;13.13;;
7195;SDS011;3639;51.308;5.624;2023-12-04T01:42:17;27.77;;;13.00;;
7195;SDS011;3639;51.308;5.624;2023-12-04T01:44:43;24.07;;;11.60;;
7195;SDS011;3639;51.308;5.624;2023-12-04T01:47:08;27.73;;;12.67;;
7195;SDS011;3639;51.308;5.624;2023-12-04T01:49:35;25.37;;;11.67;;
7195;SDS011;3639;51.308;5.624;2023-12-04T01:52:01;26.20;;;12.67;;
7195;SDS011;3639;51.308;5.624;2023-12-04T01:54:27;24.97;;;12.67;;
7195;SDS011;3639;51.308;5.624;2023-12-04T01:56:53;23.80;;;12.93;;
7195;SDS011;3639;51.308;5.624;2023-12-04T01:59:21;24.00;;;12.17;;
7195;SDS011;3639;51.308;5.624;2023-12-04T02:01:47;21.40;;;12.30;;
7195;SDS011;3639;51.308;5.624;2023-12-04T02:04:13;19.70;;;9.93;;
7195;SDS011;3639;51.308;5.624;2023-12-04T02:06:40;26.90;;;13.07;;
7195;SDS011;3639;51.308;5.624;2023-12-04T02:09:05;20.23;;;10.80;;
7195;SDS011;3639;51.308;5.624;2023-12-04T02:11:31;25.53;;;12.53;;
7195;SDS011;3639;51.308;5.624;2023-12-04T02:13:57;25.53;;;12.63;;
7195;SDS011;3639;51.308;5.624;2023-12-04T02:16:23;25.33;;;12.07;;
7195;SDS011;3639;51.308;5.624;2023-12-04T02:18:52;25.93;;;11.73;;
7195;SDS011;3639;51.308;5.624;2023-12-04T02:21:17;24.27;;;11.50;;
7195;SDS011;3639;51.308;5.624;2023-12-04T02:23:47;25.63;;;12.20;;
7195;SDS011;3639;51.308;5.624;2023-12-04T02:26:15;23.00;;;11.83;;
7195;SDS011;3639;51.308;5.624;2023-12-04T02:28:44;25.97;;;12.40;;
7195;SDS011;3639;51.308;5.624;2023-12-04T02:31:23;28.50;;;12.93;;
7195;SDS011;3639;51.308;5.624;2023-12-04T02:33:51;23.97;;;11.60;;
7195;SDS011;3639;51.308;5.624;2023-12-04T02:36:20;19.63;;;10.30;;
7195;SDS011;3639;51.308;5.624;2023-12-04T02:38:49;23.10;;;11.13;;
7195;SDS011;3639;51.308;5.624;2023-12-04T02:41:15;21.13;;;10.07;;
7195;SDS011;3639;51.308;5.624;2023-12-04T02:43:42;22.47;;;11.20;;
7195;SDS011;3639;51.308;5.624;2023-12-04T02:46:08;19.80;;;10.97;;
7195;SDS011;3639;51.308;5.624;2023-12-04T02:48:34;22.33;;;11.40;;
7195;SDS011;3639;51.308;5.624;2023-12-04T02:50:59;22.17;;;12.00;;
7195;SDS011;3639;51.308;5.624;2023-12-04T02:53:25;22.33;;;10.73;;
7195;SDS011;3639;51.308;5.624;2023-12-04T02:55:50;20.53;;;10.53;;
7195;SDS011;3639;51.308;5.624;2023-12-04T02:58:16;23.33;;;11.57;;
7195;SDS011;3639;51.308;5.624;2023-12-04T03:00:42;23.03;;;10.53;;
7195;SDS011;3639;51.308;5.624;2023-12-04T03:03:07;17.73;;;9.77;;
7195;SDS011;3639;51.308;5.624;2023-12-04T03:05:33;27.37;;;11.20;;
7195;SDS011;3639;51.308;5.624;2023-12-04T03:08:00;19.10;;;10.00;;
7195;SDS011;3639;51.308;5.624;2023-12-04T03:10:25;21.43;;;11.13;;
7195;SDS011;3639;51.308;5.624;2023-12-04T03:12:51;20.67;;;9.93;;
7195;SDS011;3639;51.308;5.624;2023-12-04T03:15:16;20.33;;;9.83;;
7195;SDS011;3639;51.308;5.624;2023-12-04T03:17:42;22.70;;;10.33;;
7195;SDS011;3639;51.308;5.624;2023-12-04T03:20:07;18.17;;;10.17;;
7195;SDS011;3639;51.308;5.624;2023-12-04T03:22:34;20.43;;;9.80;;
7195;SDS011;3639;51.308;5.624;2023-12-04T03:25:01;20.47;;;10.97;;
7195;SDS011;3639;51.308;5.624;2023-12-04T03:27:27;22.90;;;10.50;;
7195;SDS011;3639;51.308;5.624;2023-12-04T03:29:53;20.13;;;9.50;;
7195;SDS011;3639;51.308;5.624;2023-12-04T03:32:19;27.53;;;11.03;;
7195;SDS011;3639;51.308;5.624;2023-12-04T03:34:45;22.30;;;10.30;;
7195;SDS011;3639;51.308;5.624;2023-12-04T03:37:10;19.63;;;9.97;;
7195;SDS011;3639;51.308;5.624;2023-12-04T03:39:36;21.07;;;10.80;;
7195;SDS011;3639;51.308;5.624;2023-12-04T03:42:01;20.60;;;9.97;;
7195;SDS011;3639;51.308;5.624;2023-12-04T03:44:27;19.43;;;9.67;;
7195;SDS011;3639;51.308;5.624;2023-12-04T03:46:53;21.27;;;11.53;;
7195;SDS011;3639;51.308;5.624;2023-12-04T03:49:18;20.90;;;10.37;;
7195;SDS011;3639;51.308;5.624;2023-12-04T03:51:44;20.67;;;11.37;;
7195;SDS011;3639;51.308;5.624;2023-12-04T03:54:10;19.30;;;10.03;;
7195;SDS011;3639;51.308;5.624;2023-12-04T03:56:36;22.07;;;10.83;;
7195;SDS011;3639;51.308;5.624;2023-12-04T03:59:01;21.90;;;10.33;;
7195;SDS011;3639;51.308;5.624;2023-12-04T04:01:27;17.17;;;10.13;;
7195;SDS011;3639;51.308;5.624;2023-12-04T04:03:53;21.60;;;10.47;;
7195;SDS011;3639;51.308;5.624;2023-12-04T04:06:18;17.67;;;9.47;;
7195;SDS011;3639;51.308;5.624;2023-12-04T04:08:44;21.53;;;10.43;;
7195;SDS011;3639;51.308;5.624;2023-12-04T04:11:09;17.53;;;10.23;;
7195;SDS011;3639;51.308;5.624;2023-12-04T04:13:36;21.27;;;10.70;;
7195;SDS011;3639;51.308;5.624;2023-12-04T04:16:02;19.67;;;9.83;;
7195;SDS011;3639;51.308;5.624;2023-12-04T04:18:28;20.37;;;10.63;;
7195;SDS011;3639;51.308;5.624;2023-12-04T04:20:53;19.50;;;10.57;;
7195;SDS011;3639;51.308;5.624;2023-12-04T04:23:19;21.83;;;10.63;;
7195;SDS011;3639;51.308;5.624;2023-12-04T04:25:44;21.83;;;9.83;;
7195;SDS011;3639;51.308;5.624;2023-12-04T04:28:10;18.27;;;10.57;;
7195;SDS011;3639;51.308;5.624;2023-12-04T04:30:35;19.50;;;9.87;;
7195;SDS011;3639;51.308;5.624;2023-12-04T04:33:01;22.00;;;10.33;;
7195;SDS011;3639;51.308;5.624;2023-12-04T04:35:29;18.23;;;9.63;;
7195;SDS011;3639;51.308;5.624;2023-12-04T04:37:55;18.70;;;9.97;;
7195;SDS011;3639;51.308;5.624;2023-12-04T04:40:22;18.57;;;10.37;;
7195;SDS011;3639;51.308;5.624;2023-12-04T04:42:48;21.03;;;10.97;;
7195;SDS011;3639;51.308;5.624;2023-12-04T04:45:13;23.37;;;10.40;;
7195;SDS011;3639;51.308;5.624;2023-12-04T04:47:39;19.00;;;9.47;;
7195;SDS011;3639;51.308;5.624;2023-12-04T04:50:05;19.13;;;9.50;;
7195;SDS011;3639;51.308;5.624;2023-12-04T04:52:31;18.87;;;9.77;;
7195;SDS011;3639;51.308;5.624;2023-12-04T04:54:56;19.57;;;10.13;;
7195;SDS011;3639;51.308;5.624;2023-12-04T04:57:22;18.07;;;9.60;;
7195;SDS011;3639;51.308;5.624;2023-12-04T04:59:47;19.83;;;9.90;;
7195;SDS011;3639;51.308;5.624;2023-12-04T05:02:13;16.50;;;9.17;;
7195;SDS011;3639;51.308;5.624;2023-12-04T05:04:38;14.83;;;9.07;;
7195;SDS011;3639;51.308;5.624;2023-12-04T05:07:07;19.30;;;10.60;;
7195;SDS011;3639;51.308;5.624;2023-12-04T05:09:33;20.33;;;9.90;;
7195;SDS011;3639;51.308;5.624;2023-12-04T05:11:58;18.63;;;10.90;;
7195;SDS011;3639;51.308;5.624;2023-12-04T05:14:24;17.57;;;9.87;;
7195;SDS011;3639;51.308;5.624;2023-12-04T05:16:49;15.17;;;9.37;;
7195;SDS011;3639;51.308;5.624;2023-12-04T05:19:15;17.60;;;10.30;;
7195;SDS011;3639;51.308;5.624;2023-12-04T05:21:41;16.20;;;9.77;;
7195;SDS011;3639;51.308;5.624;2023-12-04T05:24:06;19.50;;;9.43;;
7195;SDS011;3639;51.308;5.624;2023-12-04T05:26:32;18.40;;;9.33;;
7195;SDS011;3639;51.308;5.624;2023-12-04T05:28:57;16.77;;;10.13;;
7195;SDS011;3639;51.308;5.624;2023-12-04T05:31:23;18.47;;;10.00;;
7195;SDS011;3639;51.308;5.624;2023-12-04T05:33:48;18.17;;;10.00;;
7195;SDS011;3639;51.308;5.624;2023-12-04T05:36:14;16.13;;;9.53;;
7195;SDS011;3639;51.308;5.624;2023-12-04T05:38:40;16.80;;;9.33;;
7195;SDS011;3639;51.308;5.624;2023-12-04T05:41:05;16.97;;;10.20;;
7195;SDS011;3639;51.308;5.624;2023-12-04T05:43:31;16.40;;;8.37;;
7195;SDS011;3639;51.308;5.624;2023-12-04T05:45:56;15.47;;;9.27;;
7195;SDS011;3639;51.308;5.624;2023-12-04T05:48:22;16.07;;;9.10;;
7195;SDS011;3639;51.308;5.624;2023-12-04T05:50:47;15.07;;;8.27;;
7195;SDS011;3639;51.308;5.624;2023-12-04T05:53:16;16.80;;;9.03;;
7195;SDS011;3639;51.308;5.624;2023-12-04T05:55:41;16.97;;;8.47;;
7195;SDS011;3639;51.308;5.624;2023-12-04T05:58:07;12.77;;;8.07;;
7195;SDS011;3639;51.308;5.624;2023-12-04T06:00:32;15.23;;;8.10;;
7195;SDS011;3639;51.308;5.624;2023-12-04T06:02:58;12.33;;;7.80;;
7195;SDS011;3639;51.308;5.624;2023-12-04T06:05:24;14.07;;;8.37;;
7195;SDS011;3639;51.308;5.624;2023-12-04T06:07:49;17.47;;;9.60;;
7195;SDS011;3639;51.308;5.624;2023-12-04T06:10:16;13.40;;;8.03;;
7195;SDS011;3639;51.308;5.624;2023-12-04T06:12:42;13.90;;;8.03;;
7195;SDS011;3639;51.308;5.624;2023-12-04T06:15:07;13.93;;;7.70;;
7195;SDS011;3639;51.308;5.624;2023-12-04T06:17:33;13.17;;;7.83;;
7195;SDS011;3639;51.308;5.624;2023-12-04T06:19:59;13.60;;;7.93;;
7195;SDS011;3639;51.308;5.624;2023-12-04T06:22:24;11.53;;;7.30;;
7195;SDS011;3639;51.308;5.624;2023-12-04T06:24:51;10.73;;;7.33;;
7195;SDS011;3639;51.308;5.624;2023-12-04T06:27:18;12.10;;;7.73;;
7195;SDS011;3639;51.308;5.624;2023-12-04T06:29:47;13.10;;;7.43;;
7195;SDS011;3639;51.308;5.624;2023-12-04T06:32:14;12.27;;;7.23;;
7195;SDS011;3639;51.308;5.624;2023-12-04T06:34:40;12.33;;;6.60;;
7195;SDS011;3639;51.308;5.624;2023-12-04T06:37:09;11.67;;;6.90;;
7195;SDS011;3639;51.308;5.624;2023-12-04T06:39:36;11.63;;;6.90;;
7195;SDS011;3639;51.308;5.624;2023-12-04T06:42:04;10.77;;;7.03;;
7195;SDS011;3639;51.308;5.624;2023-12-04T06:44:30;13.13;;;6.97;;
7195;SDS011;3639;51.308;5.624;2023-12-04T06:46:56;12.40;;;7.30;;
7195;SDS011;3639;51.308;5.624;2023-12-04T06:49:29;11.03;;;7.03;;
7195;SDS011;3639;51.308;5.624;2023-12-04T06:51:55;10.10;;;6.47;;
7195;SDS011;3639;51.308;5.624;2023-12-04T06:54:21;10.77;;;6.80;;
7195;SDS011;3639;51.308;5.624;2023-12-04T06:56:46;9.77;;;6.73;;
7195;SDS011;3639;51.308;5.624;2023-12-04T06:59:12;9.83;;;6.17;;
7195;SDS011;3639;51.308;5.624;2023-12-04T07:01:37;11.33;;;6.30;;
7195;SDS011;3639;51.308;5.624;2023-12-04T07:04:03;10.53;;;7.37;;
7195;SDS011;3639;51.308;5.624;2023-12-04T07:06:34;9.40;;;6.70;;
7195;SDS011;3639;51.308;5.624;2023-12-04T07:09:01;11.37;;;6.77;;
7195;SDS011;3639;51.308;5.624;2023-12-04T07:11:26;12.17;;;7.17;;
7195;SDS011;3639;51.308;5.624;2023-12-04T07:13:52;11.87;;;6.97;;
7195;SDS011;3639;51.308;5.624;2023-12-04T07:16:17;10.20;;;7.50;;
7195;SDS011;3639;51.308;5.624;2023-12-04T07:18:43;12.00;;;7.00;;
7195;SDS011;3639;51.308;5.624;2023-12-04T07:21:09;10.50;;;6.87;;
7195;SDS011;3639;51.308;5.624;2023-12-04T07:23:35;10.20;;;7.10;;
7195;SDS011;3639;51.308;5.624;2023-12-04T07:26:00;12.77;;;6.77;;
7195;SDS011;3639;51.308;5.624;2023-12-04T07:28:26;7.53;;;6.00;;
7195;SDS011;3639;51.308;5.624;2023-12-04T07:30:51;9.17;;;6.33;;
7195;SDS011;3639;51.308;5.624;2023-12-04T07:33:18;11.90;;;6.70;;
7195;SDS011;3639;51.308;5.624;2023-12-04T07:35:44;12.13;;;6.80;;
7195;SDS011;3639;51.308;5.624;2023-12-04T07:38:10;10.50;;;6.47;;
7195;SDS011;3639;51.308;5.624;2023-12-04T07:40:35;7.70;;;5.97;;
7195;SDS011;3639;51.308;5.624;2023-12-04T07:43:01;10.50;;;6.40;;
7195;SDS011;3639;51.308;5.624;2023-12-04T07:45:27;15.20;;;8.60;;
7195;SDS011;3639;51.308;5.624;2023-12-04T07:47:53;11.93;;;7.30;;
7195;SDS011;3639;51.308;5.624;2023-12-04T07:50:18;9.40;;;5.83;;
7195;SDS011;3639;51.308;5.624;2023-12-04T07:52:44;11.47;;;7.03;;
7195;SDS011;3639;51.308;5.624;2023-12-04T07:55:09;16.10;;;9.77;;
7195;SDS011;3639;51.308;5.624;2023-12-04T07:57:35;14.43;;;8.57;;
7195;SDS011;3639;51.308;5.624;2023-12-04T08:00:01;12.40;;;7.53;;
7195;SDS011;3639;51.308;5.624;2023-12-04T08:02:26;9.17;;;6.40;;
7195;SDS011;3639;51.308;5.624;2023-12-04T08:04:53;11.90;;;6.33;;
7195;SDS011;3639;51.308;5.624;2023-12-04T08:07:18;11.33;;;7.50;;
7195;SDS011;3639;51.308;5.624;2023-12-04T08:09:44;10.77;;;7.10;;
7195;SDS011;3639;51.308;5.624;2023-12-04T08:12:09;10.27;;;6.70;;
7195;SDS011;3639;51.308;5.624;2023-12-04T08:14:35;9.27;;;5.80;;
7195;SDS011;3639;51.308;5.624;2023-12-04T08:17:00;10.40;;;6.53;;
7195;SDS011;3639;51.308;5.624;2023-12-04T08:19:26;10.67;;;7.17;;
7195;SDS011;3639;51.308;5.624;2023-12-04T08:21:52;11.60;;;6.70;;
7195;SDS011;3639;51.308;5.624;2023-12-04T08:24:17;11.87;;;6.70;;
7195;SDS011;3639;51.308;5.624;2023-12-04T08:26:44;10.50;;;7.10;;
7195;SDS011;3639;51.308;5.624;2023-12-04T08:29:10;11.07;;;6.57;;
7195;SDS011;3639;51.308;5.624;2023-12-04T08:31:36;13.70;;;7.03;;
7195;SDS011;3639;51.308;5.624;2023-12-04T08:34:02;11.67;;;6.87;;
7195;SDS011;3639;51.308;5.624;2023-12-04T08:36:27;10.83;;;6.93;;
7195;SDS011;3639;51.308;5.624;2023-12-04T08:38:53;8.83;;;5.63;;
7195;SDS011;3639;51.308;5.624;2023-12-04T08:41:19;10.13;;;6.70;;
7195;SDS011;3639;51.308;5.624;2023-12-04T08:43:45;9.90;;;6.20;;
7195;SDS011;3639;51.308;5.624;2023-12-04T08:46:13;8.80;;;6.40;;
7195;SDS011;3639;51.308;5.624;2023-12-04T08:48:42;10.53;;;6.60;;
7195;SDS011;3639;51.308;5.624;2023-12-04T08:51:08;10.03;;;6.30;;
7195;SDS011;3639;51.308;5.624;2023-12-04T08:53:43;11.47;;;6.23;;
7195;SDS011;3639;51.308;5.624;2023-12-04T08:56:09;10.47;;;6.23;;
7195;SDS011;3639;51.308;5.624;2023-12-04T08:58:35;10.93;;;7.57;;
7195;SDS011;3639;51.308;5.624;2023-12-04T09:01:01;11.43;;;6.80;;
7195;SDS011;3639;51.308;5.624;2023-12-04T09:03:28;10.70;;;6.63;;
7195;SDS011;3639;51.308;5.624;2023-12-04T09:05:54;10.70;;;6.73;;
7195;SDS011;3639;51.308;5.624;2023-12-04T09:08:21;11.27;;;7.00;;
7195;SDS011;3639;51.308;5.624;2023-12-04T09:10:47;11.17;;;7.03;;
7195;SDS011;3639;51.308;5.624;2023-12-04T09:13:14;10.53;;;7.00;;
7195;SDS011;3639;51.308;5.624;2023-12-04T09:15:39;10.20;;;6.97;;
7195;SDS011;3639;51.308;5.624;2023-12-04T09:18:05;11.77;;;6.97;;
7195;SDS011;3639;51.308;5.624;2023-12-04T09:20:31;11.03;;;7.30;;
7195;SDS011;3639;51.308;5.624;2023-12-04T09:22:56;11.63;;;7.87;;
7195;SDS011;3639;51.308;5.624;2023-12-04T09:25:22;11.00;;;6.83;;
7195;SDS011;3639;51.308;5.624;2023-12-04T09:27:47;12.50;;;7.37;;
7195;SDS011;3639;51.308;5.624;2023-12-04T09:30:13;12.47;;;7.70;;
7195;SDS011;3639;51.308;5.624;2023-12-04T09:32:39;11.60;;;6.60;;
7195;SDS011;3639;51.308;5.624;2023-12-04T09:35:04;14.43;;;8.00;;
7195;SDS011;3639;51.308;5.624;2023-12-04T09:37:31;12.03;;;7.23;;
7195;SDS011;3639;51.308;5.624;2023-12-04T09:39:56;11.53;;;7.90;;
7195;SDS011;3639;51.308;5.624;2023-12-04T09:42:22;13.43;;;7.67;;
7195;SDS011;3639;51.308;5.624;2023-12-04T09:44:48;12.07;;;7.37;;
7195;SDS011;3639;51.308;5.624;2023-12-04T09:47:22;11.37;;;7.37;;
7195;SDS011;3639;51.308;5.624;2023-12-04T09:49:48;12.73;;;7.20;;
7195;SDS011;3639;51.308;5.624;2023-12-04T09:52:16;12.03;;;7.77;;
7195;SDS011;3639;51.308;5.624;2023-12-04T09:54:43;10.23;;;7.37;;
7195;SDS011;3639;51.308;5.624;2023-12-04T09:57:09;12.93;;;8.27;;
7195;SDS011;3639;51.308;5.624;2023-12-04T09:59:35;12.77;;;8.30;;
7195;SDS011;3639;51.308;5.624;2023-12-04T10:02:01;13.53;;;8.00;;
7195;SDS011;3639;51.308;5.624;2023-12-04T10:04:27;15.23;;;8.73;;
7195;SDS011;3639;51.308;5.624;2023-12-04T10:06:52;13.43;;;7.97;;
7195;SDS011;3639;51.308;5.624;2023-12-04T10:09:19;12.67;;;9.20;;
7195;SDS011;3639;51.308;5.624;2023-12-04T10:11:47;14.50;;;8.83;;
7195;SDS011;3639;51.308;5.624;2023-12-04T10:14:16;13.50;;;8.37;;
7195;SDS011;3639;51.308;5.624;2023-12-04T10:16:43;15.77;;;8.33;;
7195;SDS011;3639;51.308;5.624;2023-12-04T10:19:16;13.60;;;9.13;;
7195;SDS011;3639;51.308;5.624;2023-12-04T10:21:46;12.33;;;7.90;;
7195;SDS011;3639;51.308;5.624;2023-12-04T10:24:26;16.67;;;9.30;;
7195;SDS011;3639;51.308;5.624;2023-12-04T10:27:02;15.00;;;9.43;;
7195;SDS011;3639;51.308;5.624;2023-12-04T10:29:54;12.60;;;8.60;;
7195;SDS011;3639;51.308;5.624;2023-12-04T10:32:21;15.47;;;9.10;;
7195;SDS011;3639;51.308;5.624;2023-12-04T10:34:47;15.77;;;9.67;;
7195;SDS011;3639;51.308;5.624;2023-12-04T10:37:13;20.33;;;10.60;;
7195;SDS011;3639;51.308;5.624;2023-12-04T10:39:50;19.97;;;11.50;;
7195;SDS011;3639;51.308;5.624;2023-12-04T10:42:23;15.20;;;9.40;;
7195;SDS011;3639;51.308;5.624;2023-12-04T10:44:57;22.23;;;11.07;;
7195;SDS011;3639;51.308;5.624;2023-12-04T10:47:25;17.30;;;10.80;;
7195;SDS011;3639;51.308;5.624;2023-12-04T10:49:52;23.80;;;12.00;;
7195;SDS011;3639;51.308;5.624;2023-12-04T10:52:18;18.20;;;10.67;;
7195;SDS011;3639;51.308;5.624;2023-12-04T10:54:45;14.90;;;9.30;;
7195;SDS011;3639;51.308;5.624;2023-12-04T10:57:11;17.07;;;10.80;;
7195;SDS011;3639;51.308;5.624;2023-12-04T10:59:41;16.93;;;9.87;;
7195;SDS011;3639;51.308;5.624;2023-12-04T11:02:08;15.50;;;10.40;;
7195;SDS011;3639;51.308;5.624;2023-12-04T11:04:38;16.53;;;10.67;;
7195;SDS011;3639;51.308;5.624;2023-12-04T11:07:05;17.43;;;11.17;;
7195;SDS011;3639;51.308;5.624;2023-12-04T11:09:34;18.20;;;11.53;;
7195;SDS011;3639;51.308;5.624;2023-12-04T11:12:02;16.00;;;9.97;;
7195;SDS011;3639;51.308;5.624;2023-12-04T11:14:33;15.27;;;9.23;;
7195;SDS011;3639;51.308;5.624;2023-12-04T11:17:04;15.37;;;9.07;;
7195;SDS011;3639;51.308;5.624;2023-12-04T11:19:43;16.70;;;9.70;;
7195;SDS011;3639;51.308;5.624;2023-12-04T11:22:17;15.80;;;8.87;;
7195;SDS011;3639;51.308;5.624;2023-12-04T11:24:45;14.40;;;9.80;;
7195;SDS011;3639;51.308;5.624;2023-12-04T11:27:14;11.10;;;7.70;;
7195;SDS011;3639;51.308;5.624;2023-12-04T11:29:41;13.90;;;8.37;;
7195;SDS011;3639;51.308;5.624;2023-12-04T11:32:08;12.23;;;7.67;;
7195;SDS011;3639;51.308;5.624;2023-12-04T11:34:51;13.13;;;8.83;;
7195;SDS011;3639;51.308;5.624;2023-12-04T11:37:19;13.40;;;8.17;;
7195;SDS011;3639;51.308;5.624;2023-12-04T11:39:46;12.50;;;7.90;;
7195;SDS011;3639;51.308;5.624;2023-12-04T11:42:24;11.90;;;7.47;;
7195;SDS011;3639;51.308;5.624;2023-12-04T11:44:59;12.47;;;7.67;;
7195;SDS011;3639;51.308;5.624;2023-12-04T11:47:24;12.33;;;8.03;;
7195;SDS011;3639;51.308;5.624;2023-12-04T11:49:52;10.70;;;7.30;;
7195;SDS011;3639;51.308;5.624;2023-12-04T11:52:18;13.33;;;8.23;;
7195;SDS011;3639;51.308;5.624;2023-12-04T11:54:59;12.60;;;7.63;;
7195;SDS011;3639;51.308;5.624;2023-12-04T11:57:31;11.57;;;7.67;;
7195;SDS011;3639;51.308;5.624;2023-12-04T12:02:33;14.80;;;8.03;;
7195;SDS011;3639;51.308;5.624;2023-12-04T12:04:59;15.33;;;8.57;;
7195;SDS011;3639;51.308;5.624;2023-12-04T12:07:25;17.10;;;9.10;;
7195;SDS011;3639;51.308;5.624;2023-12-04T12:09:50;12.87;;;8.30;;
7195;SDS011;3639;51.308;5.624;2023-12-04T12:12:16;14.23;;;8.57;;
7195;SDS011;3639;51.308;5.624;2023-12-04T12:14:42;14.90;;;8.00;;
7195;SDS011;3639;51.308;5.624;2023-12-04T12:17:08;14.30;;;8.27;;
7195;SDS011;3639;51.308;5.624;2023-12-04T12:19:33;15.40;;;9.03;;
7195;SDS011;3639;51.308;5.624;2023-12-04T12:21:59;15.10;;;8.97;;
7195;SDS011;3639;51.308;5.624;2023-12-04T12:24:25;15.70;;;8.23;;
7195;SDS011;3639;51.308;5.624;2023-12-04T12:26:51;13.53;;;8.30;;
7195;SDS011;3639;51.308;5.624;2023-12-04T12:29:17;18.23;;;8.80;;
7195;SDS011;3639;51.308;5.624;2023-12-04T12:31:42;14.53;;;8.80;;
7195;SDS011;3639;51.308;5.624;2023-12-04T12:34:08;17.27;;;8.83;;
7195;SDS011;3639;51.308;5.624;2023-12-04T12:36:34;11.43;;;8.03;;
7195;SDS011;3639;51.308;5.624;2023-12-04T12:39:00;14.73;;;7.70;;
7195;SDS011;3639;51.308;5.624;2023-12-04T12:41:28;14.80;;;8.03;;
7195;SDS011;3639;51.308;5.624;2023-12-04T12:43:54;14.17;;;8.97;;
7195;SDS011;3639;51.308;5.624;2023-12-04T12:46:20;13.47;;;8.57;;
7195;SDS011;3639;51.308;5.624;2023-12-04T12:48:47;13.33;;;8.13;;
7195;SDS011;3639;51.308;5.624;2023-12-04T12:51:12;12.43;;;8.20;;
7195;SDS011;3639;51.308;5.624;2023-12-04T12:53:38;14.30;;;8.00;;
7195;SDS011;3639;51.308;5.624;2023-12-04T12:56:04;12.17;;;8.00;;
7195;SDS011;3639;51.308;5.624;2023-12-04T12:58:31;12.03;;;7.87;;
7195;SDS011;3639;51.308;5.624;2023-12-04T13:00:56;11.40;;;8.33;;
7195;SDS011;3639;51.308;5.624;2023-12-04T13:03:22;11.87;;;7.77;;
7195;SDS011;3639;51.308;5.624;2023-12-04T13:05:47;14.10;;;8.53;;
7195;SDS011;3639;51.308;5.624;2023-12-04T13:08:13;13.20;;;7.73;;
7195;SDS011;3639;51.308;5.624;2023-12-04T13:10:42;14.73;;;8.83;;
7195;SDS011;3639;51.308;5.624;2023-12-04T13:13:10;11.97;;;8.40;;
7195;SDS011;3639;51.308;5.624;2023-12-04T13:15:36;13.73;;;8.67;;
7195;SDS011;3639;51.308;5.624;2023-12-04T13:18:02;13.33;;;7.43;;
7195;SDS011;3639;51.308;5.624;2023-12-04T13:20:28;11.90;;;8.17;;
7195;SDS011;3639;51.308;5.624;2023-12-04T13:22:53;13.83;;;8.77;;
7195;SDS011;3639;51.308;5.624;2023-12-04T13:25:19;11.87;;;7.80;;
7195;SDS011;3639;51.308;5.624;2023-12-04T13:27:45;13.40;;;8.23;;
7195;SDS011;3639;51.308;5.624;2023-12-04T13:30:11;14.63;;;7.97;;
7195;SDS011;3639;51.308;5.624;2023-12-04T13:32:37;14.43;;;7.93;;
7195;SDS011;3639;51.308;5.624;2023-12-04T13:35:03;11.03;;;6.80;;
7195;SDS011;3639;51.308;5.624;2023-12-04T13:37:39;10.37;;;7.33;;
7195;SDS011;3639;51.308;5.624;2023-12-04T13:40:05;12.53;;;7.63;;
7195;SDS011;3639;51.308;5.624;2023-12-04T13:42:33;12.73;;;8.13;;
7195;SDS011;3639;51.308;5.624;2023-12-04T13:45:17;12.17;;;7.13;;
7195;SDS011;3639;51.308;5.624;2023-12-04T13:47:45;10.70;;;7.30;;
7195;SDS011;3639;51.308;5.624;2023-12-04T13:50:11;13.97;;;7.90;;
7195;SDS011;3639;51.308;5.624;2023-12-04T13:52:37;10.47;;;7.97;;
7195;SDS011;3639;51.308;5.624;2023-12-04T13:55:04;13.20;;;8.23;;
7195;SDS011;3639;51.308;5.624;2023-12-04T13:57:43;13.13;;;8.63;;
7195;SDS011;3639;51.308;5.624;2023-12-04T14:00:19;12.60;;;8.20;;
7195;SDS011;3639;51.308;5.624;2023-12-04T14:02:45;14.37;;;7.80;;
7195;SDS011;3639;51.308;5.624;2023-12-04T14:05:11;13.23;;;7.90;;
7195;SDS011;3639;51.308;5.624;2023-12-04T14:07:40;12.50;;;7.83;;
7195;SDS011;3639;51.308;5.624;2023-12-04T14:10:08;11.97;;;8.23;;
7195;SDS011;3639;51.308;5.624;2023-12-04T14:12:34;13.10;;;8.03;;
7195;SDS011;3639;51.308;5.624;2023-12-04T14:15:01;21.90;;;9.93;;
7195;SDS011;3639;51.308;5.624;2023-12-04T14:17:28;12.80;;;8.20;;
7195;SDS011;3639;51.308;5.624;2023-12-04T14:19:54;11.33;;;7.40;;
7195;SDS011;3639;51.308;5.624;2023-12-04T14:22:19;15.23;;;9.13;;
7195;SDS011;3639;51.308;5.624;2023-12-04T14:24:45;14.10;;;8.63;;
7195;SDS011;3639;51.308;5.624;2023-12-04T14:27:10;16.83;;;8.80;;
7195;SDS011;3639;51.308;5.624;2023-12-04T14:29:36;13.97;;;8.50;;
7195;SDS011;3639;51.308;5.624;2023-12-04T14:32:01;15.63;;;9.30;;
7195;SDS011;3639;51.308;5.624;2023-12-04T14:34:27;14.20;;;9.00;;
7195;SDS011;3639;51.308;5.624;2023-12-04T14:36:53;16.33;;;9.50;;
7195;SDS011;3639;51.308;5.624;2023-12-04T14:39:19;14.53;;;9.30;;
7195;SDS011;3639;51.308;5.624;2023-12-04T14:41:44;14.53;;;9.67;;
7195;SDS011;3639;51.308;5.624;2023-12-04T14:44:10;15.63;;;9.30;;
7195;SDS011;3639;51.308;5.624;2023-12-04T14:46:36;13.63;;;8.97;;
7195;SDS011;3639;51.308;5.624;2023-12-04T14:49:01;16.80;;;9.73;;
7195;SDS011;3639;51.308;5.624;2023-12-04T14:51:27;15.73;;;9.47;;
7195;SDS011;3639;51.308;5.624;2023-12-04T14:53:53;16.27;;;9.63;;
7195;SDS011;3639;51.308;5.624;2023-12-04T14:56:42;17.07;;;10.23;;